Time;durP1;ratioP1;P1;durP2;ratioP2;P2;SDS_P1;SDS_P2;PMS_P1;PMS_P2;Temp;Humidity;BMP_temperature;BMP_pressure;BME280_temperature;BME280_humidity;BME280_pressure;Samples;Min_cycle;Max_cycle;Signal;HPM_P1;HPM_P2
2022/03/30 00:00:07;;;;;;;22.80;14.90;;;9.00;99.90;;;;;;5059307;28;20492;-81
2022/03/30 00:02:34;;;;;;;27.47;16.57;;;9.00;99.90;;;;;;5059339;28;20458;-81
2022/03/30 00:05:00;;;;;;;26.37;15.67;;;8.90;99.90;;;;;;5059017;28;20463;-82
2022/03/30 00:07:31;;;;;;;20.43;14.00;;;8.90;99.90;;;;;;5059514;28;20474;-81
2022/03/30 00:09:58;;;;;;;24.90;15.43;;;8.80;99.90;;;;;;5059201;28;20454;-81
2022/03/30 00:12:25;;;;;;;24.93;15.40;;;8.80;99.90;;;;;;5058662;28;20450;-81
2022/03/30 00:14:52;;;;;;;25.40;13.87;;;8.80;99.90;;;;;;5057476;28;20509;-81
2022/03/30 00:17:19;;;;;;;27.97;16.80;;;8.80;99.90;;;;;;5058335;28;20458;-81
2022/03/30 00:19:46;;;;;;;29.50;16.73;;;8.70;99.90;;;;;;5058748;28;20525;-81
2022/03/30 00:22:15;;;;;;;30.77;17.23;;;8.80;99.90;;;;;;5058676;28;20837;-81
2022/03/30 00:24:43;;;;;;;23.77;13.50;;;8.70;99.90;;;;;;5057711;28;20564;-80
2022/03/30 00:27:10;;;;;;;27.80;16.03;;;8.70;99.90;;;;;;5058238;28;20485;-81
2022/03/30 00:29:37;;;;;;;27.60;16.93;;;8.70;99.90;;;;;;5058014;28;20545;-81
2022/03/30 00:32:05;;;;;;;25.07;16.50;;;8.60;99.90;;;;;;5058008;28;20466;-81
2022/03/30 00:34:32;;;;;;;31.53;16.10;;;8.60;99.90;;;;;;5057868;28;20470;-82
2022/03/30 00:36:59;;;;;;;27.60;15.70;;;8.60;99.90;;;;;;5057553;28;20449;-81
2022/03/30 00:39:26;;;;;;;34.47;16.87;;;8.60;99.90;;;;;;5057424;28;20451;-81
2022/03/30 00:41:54;;;;;;;21.83;15.27;;;8.40;99.90;;;;;;5057947;28;20447;-82
2022/03/30 00:44:21;;;;;;;29.30;16.07;;;8.30;99.90;;;;;;5057099;28;20489;-81
2022/03/30 00:46:47;;;;;;;30.17;16.50;;;8.20;99.90;;;;;;5056808;28;20581;-80
2022/03/30 00:49:14;;;;;;;25.50;15.57;;;8.10;99.90;;;;;;5056774;28;20452;-80
2022/03/30 00:51:41;;;;;;;29.30;15.97;;;8.00;99.90;;;;;;5057264;28;20820;-81
2022/03/30 00:54:08;;;;;;;23.03;14.27;;;8.10;99.90;;;;;;5056303;28;20495;-81
2022/03/30 00:56:37;;;;;;;25.93;14.50;;;8.10;99.90;;;;;;5057117;28;20457;-80
2022/03/30 00:59:07;;;;;;;25.43;15.93;;;8.10;99.90;;;;;;5057078;28;20457;-81
2022/03/30 01:01:35;;;;;;;27.40;14.33;;;8.00;99.90;;;;;;5057888;28;20452;-79
2022/03/30 01:04:03;;;;;;;21.20;14.17;;;8.00;99.90;;;;;;5056246;28;20476;-82
2022/03/30 01:06:30;;;;;;;24.27;14.83;;;8.00;99.90;;;;;;5056413;28;20512;-82
2022/03/30 01:08:57;;;;;;;23.50;15.70;;;8.00;99.90;;;;;;5057037;28;20959;-80
2022/03/30 01:11:25;;;;;;;24.23;14.53;;;8.00;99.90;;;;;;5057248;28;20460;-81
2022/03/30 01:13:52;;;;;;;23.93;14.53;;;8.00;99.90;;;;;;5056057;28;20499;-79
2022/03/30 01:16:20;;;;;;;26.10;15.27;;;8.00;99.90;;;;;;5056290;28;20456;-81
2022/03/30 01:18:47;;;;;;;32.10;18.23;;;8.00;99.90;;;;;;5056599;28;20816;-81
2022/03/30 01:21:18;;;;;;;28.00;15.23;;;7.80;99.90;;;;;;5055548;28;20452;-80
2022/03/30 01:23:45;;;;;;;23.40;14.90;;;7.90;99.90;;;;;;5055264;28;20509;-81
2022/03/30 01:26:12;;;;;;;25.03;14.77;;;7.80;99.90;;;;;;5055398;28;20493;-80
2022/03/30 01:28:38;;;;;;;26.27;16.23;;;7.80;99.90;;;;;;5057227;28;20467;-80
2022/03/30 01:33:49;;;;;;;26.50;16.90;;;7.70;99.90;;;;;;5055993;28;20927;-81
2022/03/30 01:36:18;;;;;;;24.53;15.53;;;7.60;99.90;;;;;;5044372;28;20457;-81
2022/03/30 01:38:45;;;;;;;31.90;14.73;;;7.60;99.90;;;;;;5056694;28;20535;-81
2022/03/30 01:41:13;;;;;;;25.20;14.90;;;7.60;99.90;;;;;;5057265;28;20835;-80
2022/03/30 01:43:40;;;;;;;26.00;16.70;;;7.50;99.90;;;;;;5055406;28;20472;-82
2022/03/30 01:46:06;;;;;;;25.27;14.87;;;7.50;99.90;;;;;;5056832;28;20531;-81
2022/03/30 01:48:33;;;;;;;25.07;16.10;;;7.50;99.90;;;;;;5057217;28;20495;-81
2022/03/30 01:51:01;;;;;;;25.53;16.17;;;7.30;99.90;;;;;;5057280;28;20461;-81
2022/03/30 01:53:29;;;;;;;25.57;16.40;;;7.30;99.90;;;;;;5056821;28;21003;-80
2022/03/30 01:55:56;;;;;;;29.90;17.10;;;7.20;99.90;;;;;;5056819;28;20456;-81
2022/03/30 01:58:23;;;;;;;28.43;15.50;;;7.20;99.90;;;;;;5058158;28;20457;-81
2022/03/30 02:00:50;;;;;;;31.30;15.53;;;7.10;99.90;;;;;;5057467;28;20585;-81
2022/03/30 02:03:17;;;;;;;27.07;16.90;;;7.10;99.90;;;;;;5057156;28;20481;-80
2022/03/30 02:05:43;;;;;;;29.37;16.73;;;7.10;99.90;;;;;;5070499;28;20810;-80
2022/03/30 02:08:10;;;;;;;29.10;16.03;;;7.10;99.90;;;;;;5060626;28;20462;-80
2022/03/30 02:10:38;;;;;;;28.37;14.30;;;7.00;99.90;;;;;;5055187;28;20460;-80
2022/03/30 02:13:06;;;;;;;26.87;16.30;;;7.00;99.90;;;;;;5035010;28;20473;-80
2022/03/30 02:15:33;;;;;;;31.10;16.57;;;7.00;99.90;;;;;;5051069;28;20453;-81
2022/03/30 02:17:59;;;;;;;24.07;14.30;;;7.00;99.90;;;;;;5054440;28;20879;-80
2022/03/30 02:20:26;;;;;;;28.70;14.70;;;7.00;99.90;;;;;;5056166;28;20833;-80
2022/03/30 02:22:53;;;;;;;27.00;17.20;;;7.00;99.90;;;;;;5055305;28;20953;-80
2022/03/30 02:25:20;;;;;;;31.30;17.50;;;7.00;99.90;;;;;;5054669;28;20497;-82
2022/03/30 02:27:48;;;;;;;24.97;15.37;;;7.00;99.90;;;;;;5056272;28;20507;-81
2022/03/30 02:30:15;;;;;;;25.87;15.63;;;7.00;99.90;;;;;;5055485;28;20451;-82
2022/03/30 02:32:44;;;;;;;29.73;16.90;;;6.90;99.90;;;;;;5055582;28;20983;-80
2022/03/30 02:35:12;;;;;;;30.00;16.97;;;6.80;99.90;;;;;;5055204;28;20472;-79
2022/03/30 02:37:39;;;;;;;27.60;15.30;;;6.80;99.90;;;;;;5055150;28;20800;-81
2022/03/30 02:40:07;;;;;;;28.00;15.30;;;6.80;99.90;;;;;;5055537;28;20539;-81
2022/03/30 02:42:34;;;;;;;32.60;16.20;;;6.90;99.90;;;;;;5055923;28;20517;-80
2022/03/30 02:45:15;;;;;;;27.80;17.10;;;6.90;99.90;;;;;;5055627;28;20479;-79
2022/03/30 02:50:26;;;;;;;23.50;15.03;;;6.90;99.90;;;;;;5034715;28;20487;-82
2022/03/30 02:52:53;;;;;;;30.03;16.43;;;6.90;99.90;;;;;;5034871;28;20456;-81
2022/03/30 02:55:20;;;;;;;28.90;16.17;;;6.70;99.90;;;;;;5053672;28;20968;-80
2022/03/30 02:57:47;;;;;;;27.70;14.90;;;6.60;99.90;;;;;;5054660;28;20956;-80
2022/03/30 03:00:15;;;;;;;31.57;15.77;;;6.60;99.90;;;;;;5053649;28;20481;-81
2022/03/30 03:02:43;;;;;;;28.70;16.47;;;6.50;99.90;;;;;;5054231;28;20460;-81
2022/03/30 03:05:10;;;;;;;28.80;15.67;;;6.40;99.90;;;;;;5053542;28;20589;-81
2022/03/30 03:07:37;;;;;;;21.07;13.03;;;6.30;99.90;;;;;;5055094;28;20879;-82
2022/03/30 03:10:05;;;;;;;23.90;16.00;;;6.30;99.90;;;;;;5053825;28;20448;-81
2022/03/30 03:12:33;;;;;;;29.40;15.73;;;6.20;99.90;;;;;;5055120;28;20462;-81
2022/03/30 03:14:59;;;;;;;22.73;14.57;;;6.00;99.90;;;;;;5053715;28;20544;-80
2022/03/30 03:17:28;;;;;;;31.03;15.40;;;5.90;99.90;;;;;;5054216;28;20452;-81
2022/03/30 03:19:54;;;;;;;31.77;17.10;;;5.80;99.90;;;;;;5054854;28;20448;-81
2022/03/30 03:22:21;;;;;;;31.60;15.40;;;5.70;99.90;;;;;;5054369;28;20811;-80
2022/03/30 03:24:48;;;;;;;25.33;15.70;;;5.70;99.90;;;;;;5051800;28;20475;-81
2022/03/30 03:27:15;;;;;;;32.00;15.07;;;5.60;99.90;;;;;;5035829;28;20477;-80
2022/03/30 03:29:42;;;;;;;26.77;15.63;;;5.50;99.90;;;;;;5053686;28;20824;-80
2022/03/30 03:32:09;;;;;;;38.03;15.80;;;5.50;99.90;;;;;;5054414;28;20455;-82
2022/03/30 03:34:37;;;;;;;29.17;15.53;;;5.40;99.90;;;;;;5056182;28;20476;-79
2022/03/30 03:37:04;;;;;;;32.53;17.30;;;5.30;99.90;;;;;;5057356;28;20488;-81
2022/03/30 03:39:31;;;;;;;33.30;16.97;;;5.30;99.90;;;;;;5057616;28;20971;-80
2022/03/30 03:41:58;;;;;;;29.13;16.30;;;5.20;99.90;;;;;;5058708;28;20443;-82
2022/03/30 03:44:25;;;;;;;26.83;15.13;;;5.20;99.90;;;;;;5056649;28;20570;-81
2022/03/30 03:46:52;;;;;;;28.43;15.30;;;5.10;99.90;;;;;;5057897;28;20487;-81
2022/03/30 03:49:19;;;;;;;32.80;16.00;;;5.20;99.90;;;;;;5057908;28;20476;-81
2022/03/30 03:51:47;;;;;;;29.57;17.70;;;5.10;99.90;;;;;;5057799;28;20913;-81
2022/03/30 03:54:14;;;;;;;31.77;15.27;;;5.10;99.90;;;;;;5058568;28;20475;-82
2022/03/30 03:56:41;;;;;;;33.00;17.20;;;5.00;99.90;;;;;;5058596;28;20447;-82
2022/03/30 03:59:07;;;;;;;38.63;16.83;;;5.00;99.90;;;;;;5059307;28;20473;-82
2022/03/30 04:01:34;;;;;;;30.07;15.10;;;5.10;99.90;;;;;;5058625;28;20488;-80
2022/03/30 04:04:01;;;;;;;28.73;15.60;;;5.10;99.90;;;;;;5058847;28;20514;-83
2022/03/30 04:06:29;;;;;;;33.47;15.73;;;5.20;99.90;;;;;;5059732;28;20882;-82
2022/03/30 04:08:57;;;;;;;30.13;16.47;;;5.20;99.90;;;;;;5060320;28;20451;-83
2022/03/30 04:11:24;;;;;;;32.57;18.57;;;5.20;99.90;;;;;;5060725;28;20558;-83
2022/03/30 04:13:51;;;;;;;29.90;15.70;;;5.20;99.90;;;;;;5059435;28;20478;-83
2022/03/30 04:16:18;;;;;;;26.53;16.73;;;5.10;99.90;;;;;;5061021;28;20471;-83
2022/03/30 04:18:45;;;;;;;23.00;14.60;;;5.20;99.90;;;;;;5074418;28;20435;-82
2022/03/30 04:21:12;;;;;;;27.97;16.00;;;5.20;99.90;;;;;;5068416;28;20455;-82
2022/03/30 04:23:39;;;;;;;34.23;17.10;;;5.20;99.90;;;;;;5046650;28;20475;-81
2022/03/30 04:26:10;;;;;;;26.80;15.60;;;5.30;99.90;;;;;;5049172;28;20457;-81
2022/03/30 04:28:40;;;;;;;31.83;16.93;;;5.20;99.90;;;;;;5054259;28;20439;-81
2022/03/30 04:31:07;;;;;;;24.97;16.40;;;5.30;99.90;;;;;;5056322;28;20499;-82
2022/03/30 04:33:34;;;;;;;25.67;15.73;;;5.20;99.90;;;;;;5054877;28;20471;-82
2022/03/30 04:36:01;;;;;;;25.27;15.93;;;5.20;99.90;;;;;;5055781;28;20479;-82
2022/03/30 04:38:27;;;;;;;27.97;15.83;;;5.20;99.90;;;;;;5055351;28;20480;-82
2022/03/30 04:40:54;;;;;;;25.23;16.70;;;5.10;99.90;;;;;;5056343;28;20462;-83
2022/03/30 04:43:22;;;;;;;26.20;15.47;;;5.10;99.90;;;;;;5054221;28;20478;-82
2022/03/30 04:45:49;;;;;;;30.30;16.30;;;5.10;99.90;;;;;;5056031;28;20458;-81
2022/03/30 04:48:16;;;;;;;23.30;15.60;;;5.00;99.90;;;;;;5056964;28;20487;-82
2022/03/30 04:50:43;;;;;;;30.40;16.30;;;4.90;99.90;;;;;;5056171;28;20461;-81
2022/03/30 04:53:10;;;;;;;29.80;16.57;;;4.90;99.90;;;;;;5056237;28;20490;-81
2022/03/30 04:55:37;;;;;;;24.70;15.83;;;4.80;99.90;;;;;;5056812;28;20457;-81
2022/03/30 04:58:04;;;;;;;27.63;16.03;;;4.80;99.90;;;;;;5057742;28;20881;-80
2022/03/30 05:00:32;;;;;;;30.57;17.63;;;4.80;99.90;;;;;;5056041;28;20450;-82
2022/03/30 05:02:59;;;;;;;29.93;18.50;;;4.70;99.90;;;;;;5055257;28;20472;-82
2022/03/30 05:05:27;;;;;;;32.13;18.77;;;4.70;99.90;;;;;;5055921;28;20458;-82
2022/03/30 05:07:55;;;;;;;34.63;19.13;;;4.60;99.90;;;;;;5056716;28;20856;-81
2022/03/30 05:10:22;;;;;;;37.60;18.60;;;4.50;99.90;;;;;;5057075;28;20447;-82
2022/03/30 05:12:49;;;;;;;26.90;16.80;;;4.50;99.90;;;;;;5059136;28;20988;-82
2022/03/30 05:15:16;;;;;;;32.47;17.87;;;4.40;99.90;;;;;;5098556;22;20558;-81
2022/03/30 05:17:45;;;;;;;27.67;17.57;;;4.40;99.90;;;;;;5094539;28;20497;-80
2022/03/30 05:20:13;;;;;;;36.33;18.17;;;4.40;99.90;;;;;;5100108;28;20839;-81
2022/03/30 05:22:40;;;;;;;35.63;18.53;;;4.50;99.90;;;;;;5105274;28;20437;-80
2022/03/30 05:25:08;;;;;;;34.20;16.07;;;4.50;99.90;;;;;;5073611;28;20475;-81
2022/03/30 05:27:35;;;;;;;31.30;18.37;;;4.50;99.90;;;;;;5065178;28;20526;-81
2022/03/30 05:30:03;;;;;;;37.70;18.63;;;4.50;99.90;;;;;;5069737;28;20457;-79
2022/03/30 05:32:29;;;;;;;31.67;18.50;;;4.50;99.90;;;;;;5084034;28;20453;-81
2022/03/30 05:34:58;;;;;;;29.80;17.90;;;4.40;99.90;;;;;;5068485;28;20453;-80
2022/03/30 05:37:25;;;;;;;27.90;17.10;;;4.40;99.90;;;;;;5059565;28;20448;-81
2022/03/30 05:39:52;;;;;;;28.43;17.87;;;4.40;99.90;;;;;;5058813;28;20460;-81
2022/03/30 05:42:20;;;;;;;30.13;18.83;;;4.40;99.90;;;;;;5066653;28;20486;-82
2022/03/30 05:44:47;;;;;;;29.80;16.17;;;4.40;99.90;;;;;;5076046;28;20471;-80
2022/03/30 05:47:15;;;;;;;37.53;18.80;;;4.30;99.90;;;;;;5052590;28;21078;-79
2022/03/30 05:49:42;;;;;;;30.43;18.70;;;4.20;99.90;;;;;;5058680;28;20458;-81
2022/03/30 05:52:11;;;;;;;29.83;17.03;;;4.30;99.90;;;;;;5069153;28;20486;-80
2022/03/30 05:54:38;;;;;;;34.67;18.93;;;4.20;99.90;;;;;;5063248;28;20489;-80
2022/03/30 05:57:07;;;;;;;33.70;18.20;;;4.30;99.90;;;;;;5060402;28;20552;-80
2022/03/30 05:59:37;;;;;;;32.50;18.03;;;4.20;99.90;;;;;;5058880;28;20479;-80
2022/03/30 06:02:05;;;;;;;29.60;17.93;;;4.20;99.90;;;;;;5075419;28;20432;-83
2022/03/30 06:04:33;;;;;;;31.20;17.00;;;4.30;99.90;;;;;;5076951;28;20534;-83
2022/03/30 06:06:59;;;;;;;32.00;15.90;;;4.40;99.90;;;;;;5077598;28;20456;-83
2022/03/30 06:09:28;;;;;;;27.90;14.20;;;4.40;99.90;;;;;;5075324;28;20458;-83
2022/03/30 06:11:55;;;;;;;33.77;17.47;;;4.50;99.90;;;;;;5079204;28;20464;-83
2022/03/30 06:14:22;;;;;;;34.93;18.37;;;4.40;99.90;;;;;;5069986;28;21069;-81
2022/03/30 06:16:50;;;;;;;30.50;17.03;;;4.50;99.90;;;;;;5081731;28;20436;-82
2022/03/30 06:19:17;;;;;;;40.20;18.03;;;4.60;99.90;;;;;;5076335;28;20548;-83
2022/03/30 06:21:44;;;;;;;36.90;16.67;;;4.50;99.90;;;;;;5070873;28;20457;-82
2022/03/30 06:24:12;;;;;;;24.90;14.90;;;4.60;99.90;;;;;;5067405;28;20509;-83
2022/03/30 06:26:41;;;;;;;26.13;15.93;;;4.80;99.90;;;;;;5067840;28;20461;-82
2022/03/30 06:29:08;;;;;;;30.70;15.63;;;4.90;99.90;;;;;;5067845;28;20479;-83
2022/03/30 06:31:35;;;;;;;38.63;17.40;;;5.00;99.90;;;;;;5069849;28;20939;-80
2022/03/30 06:34:03;;;;;;;25.50;15.90;;;5.20;99.90;;;;;;5067621;28;20485;-82
2022/03/30 06:36:31;;;;;;;29.20;17.10;;;5.10;99.90;;;;;;5080892;28;20880;-82
2022/03/30 06:38:59;;;;;;;37.73;19.00;;;5.10;99.90;;;;;;5072410;28;20443;-81
2022/03/30 06:41:26;;;;;;;31.50;16.63;;;5.00;99.90;;;;;;5074104;28;20444;-80
2022/03/30 06:43:55;;;;;;;32.37;17.53;;;5.00;99.90;;;;;;5074933;28;20465;-81
2022/03/30 06:46:21;;;;;;;27.80;15.30;;;4.90;99.90;;;;;;5072934;28;20800;-80
2022/03/30 06:48:48;;;;;;;31.53;17.90;;;4.90;99.90;;;;;;5074182;28;20545;-82
2022/03/30 06:51:16;;;;;;;26.47;15.60;;;5.00;99.90;;;;;;5069642;28;20498;-80
2022/03/30 06:53:43;;;;;;;30.70;16.43;;;5.10;99.90;;;;;;5062594;28;20483;-81
2022/03/30 06:56:10;;;;;;;33.00;15.20;;;5.10;99.90;;;;;;5063557;28;20484;-81
2022/03/30 06:58:37;;;;;;;25.30;16.20;;;5.30;99.90;;;;;;5064439;28;20509;-81
2022/03/30 07:01:05;;;;;;;23.53;14.83;;;5.40;99.90;;;;;;5064215;28;20487;-81
2022/03/30 07:03:32;;;;;;;24.97;14.80;;;5.50;99.90;;;;;;5063159;28;20459;-81
2022/03/30 07:06:02;;;;;;;29.87;14.30;;;5.50;99.90;;;;;;5064287;28;20466;-81
2022/03/30 07:11:17;;;;;;;28.80;15.27;;;5.80;99.90;;;;;;5081352;28;20420;-80
2022/03/30 07:13:44;;;;;;;23.17;15.23;;;5.90;99.90;;;;;;5082118;28;20470;-81
2022/03/30 07:16:12;;;;;;;23.93;15.10;;;6.10;99.90;;;;;;5080089;28;20480;-82
2022/03/30 07:18:39;;;;;;;24.90;14.13;;;6.20;99.90;;;;;;5083508;28;20475;-83
2022/03/30 07:21:05;;;;;;;25.30;14.73;;;6.30;99.90;;;;;;5080388;28;20486;-83
2022/03/30 07:23:35;;;;;;;25.70;15.33;;;6.40;99.90;;;;;;5082271;28;20460;-83
2022/03/30 07:26:02;;;;;;;29.93;13.63;;;6.50;99.90;;;;;;5100477;28;20449;-84
2022/03/30 07:28:29;;;;;;;24.10;13.13;;;6.50;99.90;;;;;;5072117;28;20493;-83
2022/03/30 07:30:56;;;;;;;26.70;14.17;;;6.60;99.90;;;;;;5091760;28;20451;-83
2022/03/30 07:33:24;;;;;;;26.30;14.33;;;6.70;99.90;;;;;;5085092;28;20524;-84
2022/03/30 07:35:52;;;;;;;30.53;16.03;;;6.90;99.90;;;;;;5077573;28;20498;-83
2022/03/30 07:38:20;;;;;;;23.40;14.53;;;6.90;99.90;;;;;;5063243;28;20462;-81
2022/03/30 07:40:49;;;;;;;28.50;16.00;;;7.00;99.90;;;;;;5076023;28;20452;-81
2022/03/30 07:43:18;;;;;;;30.33;17.33;;;7.30;99.90;;;;;;5070971;28;20553;-82
2022/03/30 07:45:45;;;;;;;25.50;15.37;;;7.60;99.90;;;;;;5079571;28;20514;-83
2022/03/30 07:48:13;;;;;;;27.37;14.67;;;7.70;99.90;;;;;;5065109;28;20476;-82
2022/03/30 07:50:42;;;;;;;31.43;16.23;;;8.00;99.90;;;;;;5057577;28;20456;-80
2022/03/30 07:53:09;;;;;;;27.30;16.70;;;8.40;99.90;;;;;;5069232;28;20499;-81
2022/03/30 07:55:38;;;;;;;28.63;16.00;;;8.60;99.90;;;;;;5066632;28;21061;-82
2022/03/30 07:58:05;;;;;;;32.93;16.17;;;8.90;99.90;;;;;;5069478;28;20453;-82
2022/03/30 08:00:32;;;;;;;30.03;15.73;;;9.30;99.90;;;;;;5068202;28;20463;-80
2022/03/30 08:03:00;;;;;;;28.40;15.90;;;9.70;99.90;;;;;;5072334;28;20491;-80
2022/03/30 08:05:27;;;;;;;26.20;15.63;;;10.10;99.90;;;;;;5071640;28;20473;-82
2022/03/30 08:07:55;;;;;;;27.80;17.73;;;10.10;99.90;;;;;;5068433;28;20596;-82
2022/03/30 08:10:23;;;;;;;29.97;14.63;;;10.30;99.90;;;;;;5061400;28;20460;-81
2022/03/30 08:12:50;;;;;;;28.27;15.97;;;10.30;99.90;;;;;;5062468;28;20543;-82
2022/03/30 08:15:17;;;;;;;27.80;15.57;;;10.80;99.90;;;;;;5058158;28;20570;-81
2022/03/30 08:17:45;;;;;;;26.80;14.70;;;10.50;99.90;;;;;;5064173;28;20460;-83
2022/03/30 08:22:25;;;;;;;19.63;12.27;;;11.10;99.90;;;;;;5064772;28;20485;-82
2022/03/30 08:23:00;;;;;;;23.53;15.30;;;11.40;99.90;;;;;;5059092;28;20435;-84
2022/03/30 08:25:30;;;;;;;22.27;14.33;;;12.00;99.90;;;;;;5061645;28;21045;-81
2022/03/30 08:27:57;;;;;;;21.33;14.23;;;12.30;99.90;;;;;;5064584;28;20944;-83
2022/03/30 08:30:29;;;;;;;26.57;14.40;;;12.10;99.90;;;;;;5065826;28;20542;-81
2022/03/30 08:32:56;;;;;;;21.70;12.93;;;11.80;99.90;;;;;;5061427;28;20455;-81
2022/03/30 08:35:25;;;;;;;21.77;14.00;;;12.40;99.90;;;;;;5058918;28;20499;-81
2022/03/30 08:37:51;;;;;;;19.43;12.60;;;12.90;99.90;;;;;;5057218;28;20463;-80
2022/03/30 08:40:23;;;;;;;20.47;12.47;;;13.40;99.90;;;;;;5058861;28;20896;-82
2022/03/30 08:42:50;;;;;;;19.73;12.33;;;14.20;99.90;;;;;;5057111;28;20489;-83
2022/03/30 08:45:17;;;;;;;18.33;12.00;;;14.20;99.90;;;;;;5056412;28;20530;-83
2022/03/30 08:47:44;;;;;;;19.53;11.73;;;14.80;99.90;;;;;;5060170;28;20493;-83
2022/03/30 08:50:11;;;;;;;19.53;11.90;;;14.50;99.90;;;;;;5060743;28;20467;-81
2022/03/30 08:52:38;;;;;;;14.83;10.13;;;14.80;99.90;;;;;;5062298;28;20470;-82
2022/03/30 08:55:08;;;;;;;17.93;10.90;;;15.50;99.90;;;;;;5061671;28;20492;-84
2022/03/30 08:57:37;;;;;;;13.77;9.33;;;16.40;99.90;;;;;;5062478;28;20471;-82
2022/03/30 09:00:08;;;;;;;17.20;9.73;;;15.90;99.90;;;;;;5067626;28;20501;-83
2022/03/30 09:02:37;;;;;;;16.63;10.00;;;16.70;99.90;;;;;;5067385;28;20444;-84
2022/03/30 09:05:15;;;;;;;16.60;10.20;;;16.60;99.90;;;;;;5068616;28;20508;-83
2022/03/30 09:07:43;;;;;;;20.07;10.90;;;17.60;99.90;;;;;;5070583;28;20836;-82
2022/03/30 09:10:15;;;;;;;20.57;10.40;;;17.50;99.50;;;;;;5057783;28;20463;-82
2022/03/30 09:12:44;;;;;;;18.20;9.60;;;18.00;99.40;;;;;;5063696;28;20527;-82
2022/03/30 09:15:12;;;;;;;21.80;10.00;;;19.10;96.50;;;;;;5051292;28;20483;-83
2022/03/30 09:17:40;;;;;;;16.17;10.73;;;19.50;93.90;;;;;;5060385;28;21261;-83
2022/03/30 09:20:12;;;;;;;17.10;11.13;;;19.70;94.10;;;;;;5072081;28;20627;-84
2022/03/30 09:22:46;;;;;;;19.07;10.70;;;19.20;91.30;;;;;;5074583;28;20508;-83
2022/03/30 09:25:14;;;;;;;12.90;9.73;;;18.70;90.30;;;;;;5071456;28;20475;-83
2022/03/30 09:27:43;;;;;;;14.57;9.10;;;19.10;87.90;;;;;;5070092;28;20455;-82
2022/03/30 09:30:13;;;;;;;18.10;9.40;;;20.30;90.40;;;;;;5069579;28;20460;-82
2022/03/30 09:32:42;;;;;;;15.70;9.83;;;20.40;82.80;;;;;;5071426;28;20535;-82
2022/03/30 09:35:20;;;;;;;13.33;9.43;;;19.10;79.70;;;;;;5072580;28;20499;-83
2022/03/30 09:38:00;;;;;;;11.53;8.43;;;19.70;81.00;;;;;;5069717;28;20471;-82
2022/03/30 09:40:37;;;;;;;15.77;9.10;;;19.70;78.20;;;;;;5059167;28;20461;-81
2022/03/30 09:43:23;;;;;;;11.93;8.90;;;20.20;79.90;;;;;;5064505;28;20486;-81
2022/03/30 09:45:51;;;;;;;14.03;8.63;;;21.50;77.50;;;;;;5062924;28;20450;-80
2022/03/30 09:48:23;;;;;;;11.33;8.57;;;21.60;73.80;;;;;;5059755;28;20498;-81
2022/03/30 09:50:52;;;;;;;13.53;8.90;;;21.90;72.30;;;;;;5053737;28;20561;-82
2022/03/30 09:53:21;;;;;;;14.80;8.73;;;21.20;67.20;;;;;;5062381;28;20856;-82
2022/03/30 09:55:59;;;;;;;13.03;9.40;;;21.00;66.60;;;;;;5067621;28;20477;-82
2022/03/30 09:58:30;;;;;;;12.70;8.00;;;20.60;69.30;;;;;;5061517;28;20462;-83
2022/03/30 10:01:09;;;;;;;12.53;8.70;;;21.20;70.80;;;;;;5070942;28;20447;-82
2022/03/30 10:03:48;;;;;;;13.83;8.60;;;21.20;67.80;;;;;;5061249;28;20458;-82
2022/03/30 10:06:17;;;;;;;12.17;8.87;;;20.90;64.60;;;;;;5066116;28;20467;-82
2022/03/30 10:08:45;;;;;;;12.73;9.47;;;22.00;68.90;;;;;;5061090;28;20483;-82
2022/03/30 10:11:16;;;;;;;10.57;7.73;;;23.10;66.20;;;;;;5069058;28;20462;-81
2022/03/30 10:13:46;;;;;;;12.07;8.10;;;22.40;63.70;;;;;;5077249;28;20488;-82
2022/03/30 10:16:14;;;;;;;12.07;7.90;;;23.10;62.40;;;;;;5068790;28;20459;-81
2022/03/30 10:18:41;;;;;;;14.00;7.67;;;23.90;61.70;;;;;;5060704;28;20830;-82
2022/03/30 10:21:23;;;;;;;13.87;8.40;;;25.00;59.00;;;;;;5061098;28;20454;-81
2022/03/30 10:24:10;;;;;;;11.10;8.67;;;25.20;58.60;;;;;;5059369;28;20463;-82
2022/03/30 10:26:49;;;;;;;10.50;8.00;;;24.80;58.30;;;;;;5058414;28;20451;-80
2022/03/30 10:29:19;;;;;;;10.03;7.13;;;24.80;55.90;;;;;;5061185;28;20486;-82
2022/03/30 10:32:12;;;;;;;9.80;8.13;;;23.70;56.80;;;;;;5059007;28;20456;-82
2022/03/30 10:35:02;;;;;;;10.70;7.70;;;24.60;56.10;;;;;;5063191;28;21054;-83
2022/03/30 10:37:31;;;;;;;13.03;7.10;;;24.50;54.90;;;;;;5050347;28;20475;-83
2022/03/30 10:40:08;;;;;;;14.03;8.23;;;25.50;54.60;;;;;;5060886;28;20472;-83
2022/03/30 10:42:58;;;;;;;9.00;7.73;;;24.30;52.40;;;;;;5061110;28;20451;-83
2022/03/30 10:45:30;;;;;;;11.27;8.13;;;24.70;55.20;;;;;;5065429;28;20484;-84
2022/03/30 10:48:16;;;;;;;9.27;7.90;;;24.00;53.00;;;;;;5049427;28;20963;-83
2022/03/30 10:50:45;;;;;;;11.70;9.03;;;23.60;53.70;;;;;;5058055;28;20536;-82
2022/03/30 10:53:42;;;;;;;10.70;7.47;;;24.10;54.50;;;;;;5050325;28;20866;-83
2022/03/30 10:56:32;;;;;;;14.03;8.13;;;25.90;54.80;;;;;;5049655;28;20456;-83
2022/03/30 10:59:16;;;;;;;10.87;8.10;;;26.60;53.00;;;;;;5058326;28;20455;-84
2022/03/30 11:01:46;;;;;;;12.50;9.20;;;27.10;52.30;;;;;;5062569;28;20513;-86
2022/03/30 11:04:25;;;;;;;11.07;8.70;;;27.60;52.70;;;;;;5062317;28;20233;-85
2022/03/30 11:07:34;;;;;;;11.03;9.03;;;25.60;50.50;;;;;;5052846;28;20883;-86
2022/03/30 11:10:29;;;;;;;9.47;8.03;;;25.40;50.60;;;;;;4969361;28;20555;-84
2022/03/30 11:12:57;;;;;;;9.50;7.47;;;26.20;51.40;;;;;;4947841;28;20463;-86
2022/03/30 11:15:24;;;;;;;11.50;8.73;;;26.70;53.10;;;;;;5047558;28;20531;-85
2022/03/30 11:17:53;;;;;;;12.70;8.60;;;27.90;49.70;;;;;;5071022;28;20447;-85
2022/03/30 11:20:23;;;;;;;9.30;7.67;;;27.90;49.30;;;;;;5068255;28;20451;-84
2022/03/30 11:22:50;;;;;;;10.67;8.20;;;28.40;49.40;;;;;;5062525;28;20535;-87
2022/03/30 11:25:19;;;;;;;10.63;8.10;;;27.50;48.90;;;;;;5062527;28;20582;-86
2022/03/30 11:28:08;;;;;;;13.40;8.83;;;28.80;47.70;;;;;;5088829;22;20583;-85
2022/03/30 11:30:39;;;;;;;11.87;7.90;;;28.10;45.80;;;;;;5057137;28;20502;-86
2022/03/30 11:33:21;;;;;;;9.80;7.60;;;28.30;46.20;;;;;;5059468;28;20459;-87
2022/03/30 11:35:49;;;;;;;11.00;9.50;;;29.10;47.50;;;;;;5057037;28;20452;-85
2022/03/30 11:38:25;;;;;;;10.37;8.40;;;29.00;48.70;;;;;;5060747;28;20508;-85
2022/03/30 11:41:06;;;;;;;9.20;8.30;;;29.10;47.70;;;;;;5061655;28;20451;-84
2022/03/30 11:45:12;;;;;;;11.27;9.27;;;28.40;47.20;;;;;;5061646;28;20459;-85
2022/03/30 11:46:26;;;;;;;14.67;9.07;;;27.10;44.40;;;;;;5059887;28;20448;-85
2022/03/30 11:48:54;;;;;;;11.60;8.03;;;26.70;46.30;;;;;;5070301;28;20499;-85
2022/03/30 11:51:26;;;;;;;10.07;7.90;;;28.70;45.90;;;;;;5077522;28;20459;-87
2022/03/30 11:54:11;;;;;;;10.33;9.20;;;29.10;45.60;;;;;;5057695;28;20432;-83
2022/03/30 11:56:38;;;;;;;11.00;9.00;;;28.00;46.40;;;;;;5065984;28;20452;-84
2022/03/30 11:59:04;;;;;;;12.23;9.57;;;28.10;45.00;;;;;;5081186;28;20445;-85
2022/03/30 12:01:35;;;;;;;12.87;9.53;;;25.60;44.80;;;;;;5086946;28;20451;-84
2022/03/30 12:04:04;;;;;;;11.40;9.93;;;24.90;48.40;;;;;;5084341;28;20514;-85
2022/03/30 12:06:31;;;;;;;15.13;9.20;;;24.20;48.00;;;;;;5087194;28;20442;-84
2022/03/30 12:08:58;;;;;;;14.30;9.50;;;26.30;48.90;;;;;;5072448;28;20486;-85
2022/03/30 12:11:29;;;;;;;14.20;10.20;;;26.80;47.10;;;;;;5066519;28;20452;-84
2022/03/30 12:13:57;;;;;;;13.10;9.00;;;26.00;45.30;;;;;;5061723;28;20463;-84
2022/03/30 12:16:24;;;;;;;12.10;9.00;;;26.20;46.70;;;;;;5062433;28;20447;-85
2022/03/30 12:18:54;;;;;;;12.83;9.00;;;27.20;48.20;;;;;;5060927;28;20475;-85
2022/03/30 12:21:23;;;;;;;12.13;8.97;;;28.80;48.00;;;;;;5061326;28;20455;-82
2022/03/30 12:23:51;;;;;;;12.03;9.60;;;30.20;45.00;;;;;;5064106;28;20456;-83
2022/03/30 12:26:18;;;;;;;12.03;9.27;;;29.20;42.80;;;;;;5063021;28;20950;-82
2022/03/30 12:28:45;;;;;;;12.00;9.80;;;28.00;42.90;;;;;;5064531;28;20598;-84
2022/03/30 12:31:14;;;;;;;9.73;8.70;;;28.00;43.40;;;;;;5064592;28;20539;-82
2022/03/30 12:33:46;;;;;;;13.53;9.60;;;28.40;46.60;;;;;;5063385;28;20953;-84
2022/03/30 12:36:17;;;;;;;8.63;7.03;;;29.70;45.40;;;;;;5065367;28;20831;-82
2022/03/30 12:38:45;;;;;;;10.13;8.37;;;30.60;43.10;;;;;;5063886;28;20471;-82
2022/03/30 12:41:22;;;;;;;10.13;8.00;;;29.10;42.00;;;;;;5064381;28;20466;-83
2022/03/30 12:43:58;;;;;;;11.80;9.00;;;29.10;42.60;;;;;;5064262;28;20475;-84
2022/03/30 12:46:24;;;;;;;10.60;7.60;;;26.90;43.00;;;;;;5065774;28;20430;-81
2022/03/30 12:48:51;;;;;;;10.13;8.40;;;27.60;45.10;;;;;;5053629;28;20516;-80
2022/03/30 12:51:19;;;;;;;9.33;8.23;;;28.40;44.10;;;;;;5060125;28;20459;-82
2022/03/30 12:53:49;;;;;;;10.83;7.40;;;25.50;41.80;;;;;;5063560;28;20456;-82